sensor_id;sensor_type;location;lat;lon;timestamp;pressure;altitude;pressure_sealevel;temperature;humidity
5966;BME280;3009;43.224;27.976;2023-06-26T00:00:12;99901.34;;;18.90;100.00
5966;BME280;3009;43.224;27.976;2023-06-26T00:02:40;99904.03;;;18.86;100.00
5966;BME280;3009;43.224;27.976;2023-06-26T00:05:09;99909.00;;;18.81;100.00
5966;BME280;3009;43.224;27.976;2023-06-26T00:07:37;99914.44;;;18.81;100.00
5966;BME280;3009;43.224;27.976;2023-06-26T00:10:06;99910.50;;;18.78;100.00
5966;BME280;3009;43.224;27.976;2023-06-26T00:12:36;99914.84;;;18.83;100.00
5966;BME280;3009;43.224;27.976;2023-06-26T00:15:05;99919.09;;;18.80;100.00
5966;BME280;3009;43.224;27.976;2023-06-26T00:17:34;99916.78;;;18.82;100.00
5966;BME280;3009;43.224;27.976;2023-06-26T00:20:05;99915.25;;;18.85;100.00
5966;BME280;3009;43.224;27.976;2023-06-26T00:22:34;99927.25;;;18.84;100.00
5966;BME280;3009;43.224;27.976;2023-06-26T00:25:03;99919.97;;;18.88;100.00
5966;BME280;3009;43.224;27.976;2023-06-26T00:27:32;99916.84;;;18.86;100.00
5966;BME280;3009;43.224;27.976;2023-06-26T00:30:02;99920.34;;;18.90;100.00
5966;BME280;3009;43.224;27.976;2023-06-26T00:32:31;99919.59;;;18.93;100.00
5966;BME280;3009;43.224;27.976;2023-06-26T00:34:59;99922.31;;;18.93;100.00
5966;BME280;3009;43.224;27.976;2023-06-26T00:37:28;99913.38;;;18.89;100.00
5966;BME280;3009;43.224;27.976;2023-06-26T00:39:56;99913.84;;;18.98;100.00
5966;BME280;3009;43.224;27.976;2023-06-26T00:42:24;99916.09;;;18.92;100.00
5966;BME280;3009;43.224;27.976;2023-06-26T00:44:53;99914.28;;;19.04;100.00
5966;BME280;3009;43.224;27.976;2023-06-26T00:47:24;99905.38;;;19.07;100.00
5966;BME280;3009;43.224;27.976;2023-06-26T00:49:54;99903.41;;;19.04;100.00
5966;BME280;3009;43.224;27.976;2023-06-26T00:52:23;99903.41;;;19.04;100.00
5966;BME280;3009;43.224;27.976;2023-06-26T00:54:55;99903.03;;;19.09;100.00
5966;BME280;3009;43.224;27.976;2023-06-26T00:57:24;99904.25;;;19.15;100.00
5966;BME280;3009;43.224;27.976;2023-06-26T00:59:53;99896.09;;;19.19;100.00
5966;BME280;3009;43.224;27.976;2023-06-26T01:02:23;99892.25;;;19.20;100.00
5966;BME280;3009;43.224;27.976;2023-06-26T01:04:54;99893.06;;;19.27;100.00
5966;BME280;3009;43.224;27.976;2023-06-26T01:07:22;99892.31;;;19.30;100.00
5966;BME280;3009;43.224;27.976;2023-06-26T01:09:51;99886.47;;;19.28;100.00
5966;BME280;3009;43.224;27.976;2023-06-26T01:12:20;99885.72;;;19.32;100.00
5966;BME280;3009;43.224;27.976;2023-06-26T01:14:49;99877.56;;;19.28;100.00
5966;BME280;3009;43.224;27.976;2023-06-26T01:17:18;99884.19;;;19.34;100.00
5966;BME280;3009;43.224;27.976;2023-06-26T01:19:48;99889.25;;;19.36;100.00
5966;BME280;3009;43.224;27.976;2023-06-26T01:22:23;99883.84;;;19.43;100.00
5966;BME280;3009;43.224;27.976;2023-06-26T01:25:09;99879.97;;;19.40;100.00
5966;BME280;3009;43.224;27.976;2023-06-26T01:27:41;99876.81;;;19.35;100.00
5966;BME280;3009;43.224;27.976;2023-06-26T01:30:11;99881.09;;;19.39;100.00
5966;BME280;3009;43.224;27.976;2023-06-26T01:32:40;99876.81;;;19.35;100.00
5966;BME280;3009;43.224;27.976;2023-06-26T01:35:09;99883.75;;;19.28;100.00
5966;BME280;3009;43.224;27.976;2023-06-26T01:37:39;99881.81;;;19.29;100.00
5966;BME280;3009;43.224;27.976;2023-06-26T01:40:10;99881.81;;;19.25;100.00
5966;BME280;3009;43.224;27.976;2023-06-26T01:42:40;99880.94;;;19.14;100.00
5966;BME280;3009;43.224;27.976;2023-06-26T01:45:13;99877.06;;;19.15;100.00
5966;BME280;3009;43.224;27.976;2023-06-26T01:47:47;99880.22;;;19.21;100.00
5966;BME280;3009;43.224;27.976;2023-06-26T01:50:22;99882.88;;;19.13;100.00
5966;BME280;3009;43.224;27.976;2023-06-26T01:52:58;99890.66;;;19.11;100.00
5966;BME280;3009;43.224;27.976;2023-06-26T01:55:34;99885.97;;;19.12;100.00
5966;BME280;3009;43.224;27.976;2023-06-26T01:58:07;99884.84;;;19.13;100.00
5966;BME280;3009;43.224;27.976;2023-06-26T02:00:37;99894.53;;;19.14;100.00
5966;BME280;3009;43.224;27.976;2023-06-26T02:03:06;99885.97;;;19.08;100.00
5966;BME280;3009;43.224;27.976;2023-06-26T02:05:35;99888.66;;;19.05;100.00
5966;BME280;3009;43.224;27.976;2023-06-26T02:08:03;99885.59;;;19.13;100.00
5966;BME280;3009;43.224;27.976;2023-06-26T02:10:32;99893.75;;;19.13;100.00
5966;BME280;3009;43.224;27.976;2023-06-26T02:13:01;99892.94;;;19.09;100.00
5966;BME280;3009;43.224;27.976;2023-06-26T02:15:31;99884.41;;;19.11;100.00
5966;BME280;3009;43.224;27.976;2023-06-26T02:17:59;99893.75;;;19.13;100.00
5966;BME280;3009;43.224;27.976;2023-06-26T02:20:28;99887.56;;;19.13;100.00
5966;BME280;3009;43.224;27.976;2023-06-26T02:22:58;99885.66;;;19.21;100.00
5966;BME280;3009;43.224;27.976;2023-06-26T02:25:27;99879.81;;;19.19;100.00
5966;BME280;3009;43.224;27.976;2023-06-26T02:27:55;99875.09;;;19.08;100.00
5966;BME280;3009;43.224;27.976;2023-06-26T02:30:24;99878.25;;;19.18;100.00
5966;BME280;3009;43.224;27.976;2023-06-26T02:32:54;99885.28;;;19.26;100.00
5966;BME280;3009;43.224;27.976;2023-06-26T02:35:22;99885.28;;;19.22;100.00
5966;BME280;3009;43.224;27.976;2023-06-26T02:37:50;99880.59;;;19.19;100.00
5966;BME280;3009;43.224;27.976;2023-06-26T02:40:19;99873.22;;;19.23;100.00
5966;BME280;3009;43.224;27.976;2023-06-26T02:42:47;99879.91;;;19.33;100.00
5966;BME280;3009;43.224;27.976;2023-06-26T02:45:16;99876.00;;;19.30;100.00
5966;BME280;3009;43.224;27.976;2023-06-26T02:47:44;99886.13;;;19.34;100.00
5966;BME280;3009;43.224;27.976;2023-06-26T02:50:14;99875.28;;;19.37;100.00
5966;BME280;3009;43.224;27.976;2023-06-26T02:52:42;99876.44;;;19.36;100.00
5966;BME280;3009;43.224;27.976;2023-06-26T02:55:11;99872.56;;;19.37;100.00
5966;BME280;3009;43.224;27.976;2023-06-26T02:57:39;99882.31;;;19.45;100.00
5966;BME280;3009;43.224;27.976;2023-06-26T03:00:09;99879.97;;;19.44;100.00
5966;BME280;3009;43.224;27.976;2023-06-26T03:02:38;99867.59;;;19.57;100.00
5966;BME280;3009;43.224;27.976;2023-06-26T03:05:07;99875.38;;;19.59;100.00
5966;BME280;3009;43.224;27.976;2023-06-26T03:07:37;99869.59;;;19.68;100.00
5966;BME280;3009;43.224;27.976;2023-06-26T03:10:06;99877.75;;;19.68;100.00
5966;BME280;3009;43.224;27.976;2023-06-26T03:12:35;99864.97;;;19.72;100.00
5966;BME280;3009;43.224;27.976;2023-06-26T03:15:03;99870.84;;;19.88;100.00
5966;BME280;3009;43.224;27.976;2023-06-26T03:17:32;99861.53;;;19.86;100.00
5966;BME280;3009;43.224;27.976;2023-06-26T03:20:01;99865.44;;;19.95;100.00
5966;BME280;3009;43.224;27.976;2023-06-26T03:22:34;99862.34;;;19.93;100.00
5966;BME280;3009;43.224;27.976;2023-06-26T03:25:05;99864.25;;;19.86;100.00
5966;BME280;3009;43.224;27.976;2023-06-26T03:27:34;99862.34;;;19.97;100.00
5966;BME280;3009;43.224;27.976;2023-06-26T03:30:03;99860.44;;;20.23;100.00
5966;BME280;3009;43.224;27.976;2023-06-26T03:32:35;99853.50;;;20.61;100.00
5966;BME280;3009;43.224;27.976;2023-06-26T03:35:04;99860.53;;;20.87;100.00
5966;BME280;3009;43.224;27.976;2023-06-26T03:37:33;99851.94;;;20.82;100.00
5966;BME280;3009;43.224;27.976;2023-06-26T03:40:01;99848.47;;;20.74;100.00
5966;BME280;3009;43.224;27.976;2023-06-26T03:42:32;99847.19;;;21.33;100.00
5966;BME280;3009;43.224;27.976;2023-06-26T03:45:01;99831.38;;;21.94;100.00
5966;BME280;3009;43.224;27.976;2023-06-26T03:47:29;99835.03;;;22.37;100.00
5966;BME280;3009;43.224;27.976;2023-06-26T03:49:58;99822.78;;;23.01;100.00
5966;BME280;3009;43.224;27.976;2023-06-26T03:52:26;99822.47;;;22.92;100.00
5966;BME280;3009;43.224;27.976;2023-06-26T03:54:58;99825.63;;;22.41;100.00
5966;BME280;3009;43.224;27.976;2023-06-26T03:57:27;99823.34;;;22.81;100.00
5966;BME280;3009;43.224;27.976;2023-06-26T03:59:57;99826.22;;;22.11;100.00
5966;BME280;3009;43.224;27.976;2023-06-26T04:02:25;99830.75;;;22.85;100.00
5966;BME280;3009;43.224;27.976;2023-06-26T04:04:54;99815.66;;;22.69;100.00
5966;BME280;3009;43.224;27.976;2023-06-26T04:07:23;99821.47;;;22.19;100.00
5966;BME280;3009;43.224;27.976;2023-06-26T04:09:52;99823.84;;;22.17;100.00
5966;BME280;3009;43.224;27.976;2023-06-26T04:12:20;99828.88;;;22.22;100.00
5966;BME280;3009;43.224;27.976;2023-06-26T04:14:49;99823.16;;;22.02;100.00
5966;BME280;3009;43.224;27.976;2023-06-26T04:17:19;99826.75;;;21.84;100.00
5966;BME280;3009;43.224;27.976;2023-06-26T04:19:48;99824.03;;;21.84;100.00
5966;BME280;3009;43.224;27.976;2023-06-26T04:22:17;99821.34;;;21.73;100.00
5966;BME280;3009;43.224;27.976;2023-06-26T04:24:46;99824.56;;;22.32;100.00
5966;BME280;3009;43.224;27.976;2023-06-26T04:27:15;99810.03;;;23.56;100.00
5966;BME280;3009;43.224;27.976;2023-06-26T04:29:44;99811.63;;;23.23;100.00
5966;BME280;3009;43.224;27.976;2023-06-26T04:32:12;99798.59;;;23.65;100.00
5966;BME280;3009;43.224;27.976;2023-06-26T04:34:42;99806.13;;;22.85;100.00
5966;BME280;3009;43.224;27.976;2023-06-26T04:37:11;99814.44;;;22.74;100.00
5966;BME280;3009;43.224;27.976;2023-06-26T04:39:43;99812.72;;;22.45;100.00
5966;BME280;3009;43.224;27.976;2023-06-26T04:42:11;99821.38;;;22.37;100.00
5966;BME280;3009;43.224;27.976;2023-06-26T04:44:40;99813.16;;;22.40;100.00
5966;BME280;3009;43.224;27.976;2023-06-26T04:47:09;99815.16;;;22.81;100.00
5966;BME280;3009;43.224;27.976;2023-06-26T04:49:38;99823.19;;;22.54;100.00
5966;BME280;3009;43.224;27.976;2023-06-26T04:52:14;99824.47;;;22.39;100.00
5966;BME280;3009;43.224;27.976;2023-06-26T04:54:43;99822.94;;;22.38;100.00
5966;BME280;3009;43.224;27.976;2023-06-26T04:57:12;99832.16;;;22.55;100.00
5966;BME280;3009;43.224;27.976;2023-06-26T04:59:41;99816.66;;;23.89;100.00
5966;BME280;3009;43.224;27.976;2023-06-26T05:02:10;99820.50;;;23.96;100.00
5966;BME280;3009;43.224;27.976;2023-06-26T05:04:39;99830.59;;;22.99;100.00
5966;BME280;3009;43.224;27.976;2023-06-26T05:07:09;99828.88;;;22.22;100.00
5966;BME280;3009;43.224;27.976;2023-06-26T05:09:39;99832.84;;;22.66;100.00
5966;BME280;3009;43.224;27.976;2023-06-26T05:12:08;99844.53;;;22.70;100.00
5966;BME280;3009;43.224;27.976;2023-06-26T05:14:36;99839.25;;;22.48;100.00
5966;BME280;3009;43.224;27.976;2023-06-26T05:17:05;99845.09;;;22.47;100.00
5966;BME280;3009;43.224;27.976;2023-06-26T05:19:34;99833.72;;;23.39;100.00
5966;BME280;3009;43.224;27.976;2023-06-26T05:22:03;99829.22;;;24.41;100.00
5966;BME280;3009;43.224;27.976;2023-06-26T05:24:35;99823.31;;;24.67;100.00
5966;BME280;3009;43.224;27.976;2023-06-26T05:27:07;99825.03;;;25.24;100.00
5966;BME280;3009;43.224;27.976;2023-06-26T05:29:36;99824.91;;;25.52;100.00
5966;BME280;3009;43.224;27.976;2023-06-26T05:32:05;99837.56;;;25.65;100.00
5966;BME280;3009;43.224;27.976;2023-06-26T05:34:34;99818.41;;;25.62;100.00
5966;BME280;3009;43.224;27.976;2023-06-26T05:37:04;99826.78;;;26.44;100.00
5966;BME280;3009;43.224;27.976;2023-06-26T05:39:33;99829.84;;;26.79;100.00
5966;BME280;3009;43.224;27.976;2023-06-26T05:42:03;99833.06;;;26.12;100.00
5966;BME280;3009;43.224;27.976;2023-06-26T05:44:33;99824.53;;;25.09;100.00
5966;BME280;3009;43.224;27.976;2023-06-26T05:47:02;99839.97;;;24.01;100.00
5966;BME280;3009;43.224;27.976;2023-06-26T05:49:30;99834.88;;;23.42;100.00
5966;BME280;3009;43.224;27.976;2023-06-26T05:51:59;99833.28;;;23.75;100.00
5966;BME280;3009;43.224;27.976;2023-06-26T05:54:28;99842.97;;;23.80;100.00
5966;BME280;3009;43.224;27.976;2023-06-26T05:56:59;99831.09;;;24.72;100.00
5966;BME280;3009;43.224;27.976;2023-06-26T05:59:28;99837.00;;;26.11;100.00
5966;BME280;3009;43.224;27.976;2023-06-26T06:02:00;99840.56;;;26.90;100.00
5966;BME280;3009;43.224;27.976;2023-06-26T06:04:29;99839.44;;;27.33;97.57
5966;BME280;3009;43.224;27.976;2023-06-26T06:07:01;99830.25;;;26.94;100.00
5966;BME280;3009;43.224;27.976;2023-06-26T06:09:30;99845.31;;;27.48;98.95
5966;BME280;3009;43.224;27.976;2023-06-26T06:11:58;99853.50;;;27.65;93.07
5966;BME280;3009;43.224;27.976;2023-06-26T06:14:28;99841.63;;;26.63;100.00
5966;BME280;3009;43.224;27.976;2023-06-26T06:16:57;99851.00;;;26.16;100.00
5966;BME280;3009;43.224;27.976;2023-06-26T06:19:27;99852.78;;;26.23;100.00
5966;BME280;3009;43.224;27.976;2023-06-26T06:21:56;99855.94;;;25.69;100.00
5966;BME280;3009;43.224;27.976;2023-06-26T06:24:24;99855.91;;;25.28;100.00
5966;BME280;3009;43.224;27.976;2023-06-26T06:26:53;99854.75;;;24.35;100.00
5966;BME280;3009;43.224;27.976;2023-06-26T06:29:21;99856.44;;;24.52;100.00
5966;BME280;3009;43.224;27.976;2023-06-26T06:31:50;99858.78;;;24.50;100.00
5966;BME280;3009;43.224;27.976;2023-06-26T06:34:19;99853.31;;;24.50;100.00
5966;BME280;3009;43.224;27.976;2023-06-26T06:36:49;99846.56;;;24.82;100.00
5966;BME280;3009;43.224;27.976;2023-06-26T06:39:18;99856.78;;;25.65;100.00
5966;BME280;3009;43.224;27.976;2023-06-26T06:41:46;99856.03;;;27.00;97.69
5966;BME280;3009;43.224;27.976;2023-06-26T06:44:15;99865.75;;;27.89;87.09
5966;BME280;3009;43.224;27.976;2023-06-26T06:46:43;99864.75;;;28.60;81.53
5966;BME280;3009;43.224;27.976;2023-06-26T06:49:12;99852.25;;;27.53;83.37
5966;BME280;3009;43.224;27.976;2023-06-26T06:51:40;99845.19;;;27.52;87.23
5966;BME280;3009;43.224;27.976;2023-06-26T06:54:10;99852.78;;;27.48;86.48
5966;BME280;3009;43.224;27.976;2023-06-26T06:56:39;99861.13;;;27.73;83.71
5966;BME280;3009;43.224;27.976;2023-06-26T06:59:08;99860.75;;;27.00;87.26
5966;BME280;3009;43.224;27.976;2023-06-26T07:01:36;99852.84;;;27.31;86.29
5966;BME280;3009;43.224;27.976;2023-06-26T07:04:05;99860.59;;;28.04;81.49
5966;BME280;3009;43.224;27.976;2023-06-26T07:06:36;99867.53;;;28.95;74.02
5966;BME280;3009;43.224;27.976;2023-06-26T07:09:04;99868.66;;;27.44;82.40
5966;BME280;3009;43.224;27.976;2023-06-26T07:11:35;99861.56;;;26.67;90.13
5966;BME280;3009;43.224;27.976;2023-06-26T07:14:03;99859.19;;;26.69;92.43
5966;BME280;3009;43.224;27.976;2023-06-26T07:16:32;99861.72;;;27.52;81.75
5966;BME280;3009;43.224;27.976;2023-06-26T07:19:01;99862.94;;;26.76;90.44
5966;BME280;3009;43.224;27.976;2023-06-26T07:21:29;99867.25;;;26.44;93.02
5966;BME280;3009;43.224;27.976;2023-06-26T07:23:58;99865.97;;;27.11;87.09
5966;BME280;3009;43.224;27.976;2023-06-26T07:26:26;99868.28;;;27.71;81.70
5966;BME280;3009;43.224;27.976;2023-06-26T07:29:12;99867.75;;;27.17;85.11
5966;BME280;3009;43.224;27.976;2023-06-26T07:31:40;99863.75;;;26.07;96.79
5966;BME280;3009;43.224;27.976;2023-06-26T07:34:09;99854.00;;;26.72;91.06
5966;BME280;3009;43.224;27.976;2023-06-26T07:36:37;99861.19;;;26.16;96.40
5966;BME280;3009;43.224;27.976;2023-06-26T07:39:06;99861.63;;;26.31;94.51
5966;BME280;3009;43.224;27.976;2023-06-26T07:41:38;99859.56;;;27.30;86.87
5966;BME280;3009;43.224;27.976;2023-06-26T07:44:07;99863.25;;;28.21;80.20
5966;BME280;3009;43.224;27.976;2023-06-26T07:46:37;99859.22;;;27.57;81.80
5966;BME280;3009;43.224;27.976;2023-06-26T07:49:06;99868.09;;;27.19;85.96
5966;BME280;3009;43.224;27.976;2023-06-26T07:51:34;99863.06;;;27.01;87.41
5966;BME280;3009;43.224;27.976;2023-06-26T07:54:03;99859.31;;;25.56;100.00
5966;BME280;3009;43.224;27.976;2023-06-26T07:56:34;99861.34;;;25.72;95.43
5966;BME280;3009;43.224;27.976;2023-06-26T07:59:04;99861.69;;;25.54;98.92
5966;BME280;3009;43.224;27.976;2023-06-26T08:01:33;99861.44;;;25.05;100.00
5966;BME280;3009;43.224;27.976;2023-06-26T08:04:04;99881.00;;;25.07;100.00
5966;BME280;3009;43.224;27.976;2023-06-26T08:06:33;99877.03;;;24.64;100.00
5966;BME280;3009;43.224;27.976;2023-06-26T08:09:02;99872.22;;;24.45;100.00
5966;BME280;3009;43.224;27.976;2023-06-26T08:11:31;99889.09;;;24.67;100.00
5966;BME280;3009;43.224;27.976;2023-06-26T08:14:00;99876.13;;;24.44;100.00
5966;BME280;3009;43.224;27.976;2023-06-26T08:16:28;99889.09;;;24.67;100.00
5966;BME280;3009;43.224;27.976;2023-06-26T08:18:57;99881.03;;;24.56;100.00
5966;BME280;3009;43.224;27.976;2023-06-26T08:21:26;99872.75;;;24.87;100.00
5966;BME280;3009;43.224;27.976;2023-06-26T08:23:57;99879.63;;;24.44;100.00
5966;BME280;3009;43.224;27.976;2023-06-26T08:26:26;99888.13;;;24.53;100.00
5966;BME280;3009;43.224;27.976;2023-06-26T08:28:55;99883.00;;;24.55;100.00
5966;BME280;3009;43.224;27.976;2023-06-26T08:31:23;99889.50;;;24.41;100.00
5966;BME280;3009;43.224;27.976;2023-06-26T08:33:52;99883.16;;;24.72;100.00
5966;BME280;3009;43.224;27.976;2023-06-26T08:36:20;99881.81;;;24.56;100.00
5966;BME280;3009;43.224;27.976;2023-06-26T08:38:50;99886.75;;;24.69;100.00
5966;BME280;3009;43.224;27.976;2023-06-26T08:41:19;99881.78;;;24.60;100.00
5966;BME280;3009;43.224;27.976;2023-06-26T08:43:48;99882.09;;;24.38;100.00
5966;BME280;3009;43.224;27.976;2023-06-26T08:46:18;99887.94;;;24.13;100.00
5966;BME280;3009;43.224;27.976;2023-06-26T08:48:49;99895.06;;;24.07;100.00
5966;BME280;3009;43.224;27.976;2023-06-26T08:51:21;99881.22;;;24.18;100.00
5966;BME280;3009;43.224;27.976;2023-06-26T08:53:56;99889.38;;;24.76;100.00
5966;BME280;3009;43.224;27.976;2023-06-26T08:56:28;99878.44;;;24.96;99.30
5966;BME280;3009;43.224;27.976;2023-06-26T08:58:58;99885.91;;;25.59;93.51
5966;BME280;3009;43.224;27.976;2023-06-26T09:01:27;99872.66;;;25.94;89.90
5966;BME280;3009;43.224;27.976;2023-06-26T09:03:56;99896.00;;;25.22;95.47
5966;BME280;3009;43.224;27.976;2023-06-26T09:06:25;99872.63;;;25.58;93.85
5966;BME280;3009;43.224;27.976;2023-06-26T09:08:55;99872.97;;;25.96;89.77
5966;BME280;3009;43.224;27.976;2023-06-26T09:11:23;99885.19;;;25.95;88.51
5966;BME280;3009;43.224;27.976;2023-06-26T09:13:52;99876.28;;;25.71;88.30
5966;BME280;3009;43.224;27.976;2023-06-26T09:16:24;99890.97;;;25.41;90.91
5966;BME280;3009;43.224;27.976;2023-06-26T09:18:56;99888.59;;;25.43;88.54
5966;BME280;3009;43.224;27.976;2023-06-26T09:21:24;99885.56;;;25.37;88.91
5966;BME280;3009;43.224;27.976;2023-06-26T09:23:54;99885.88;;;25.99;85.80
5966;BME280;3009;43.224;27.976;2023-06-26T09:26:23;99886.50;;;26.07;80.55
5966;BME280;3009;43.224;27.976;2023-06-26T09:28:58;99885.88;;;25.99;81.00
5966;BME280;3009;43.224;27.976;2023-06-26T09:31:37;99885.59;;;25.94;85.37
5966;BME280;3009;43.224;27.976;2023-06-26T09:34:09;99884.13;;;25.89;86.09
5966;BME280;3009;43.224;27.976;2023-06-26T09:36:38;99886.00;;;25.76;85.48
5966;BME280;3009;43.224;27.976;2023-06-26T09:39:10;99880.59;;;26.09;82.48
5966;BME280;3009;43.224;27.976;2023-06-26T10:47:05;99858.31;;;26.56;68.86
5966;BME280;3009;43.224;27.976;2023-06-26T10:57:08;99859.66;;;27.56;62.71
5966;BME280;3009;43.224;27.976;2023-06-26T11:03:31;99853.28;;;27.30;61.66
5966;BME280;3009;43.224;27.976;2023-06-26T11:09:56;99844.06;;;27.07;61.14
5966;BME280;3009;43.224;27.976;2023-06-26T11:19:55;99850.09;;;27.31;60.91
5966;BME280;3009;43.224;27.976;2023-06-26T11:29:57;99850.69;;;26.93;62.22
5966;BME280;3009;43.224;27.976;2023-06-26T11:39:55;99865.94;;;26.48;84.28
5966;BME280;3009;43.224;27.976;2023-06-26T11:46:26;99872.72;;;26.27;100.00
5966;BME280;3009;43.224;27.976;2023-06-26T11:52:56;99879.97;;;25.81;100.00
5966;BME280;3009;43.224;27.976;2023-06-26T12:03:01;99908.03;;;24.30;100.00
5966;BME280;3009;43.224;27.976;2023-06-26T12:09:11;99903.78;;;24.80;100.00
5966;BME280;3009;43.224;27.976;2023-06-26T12:15:21;99896.16;;;24.68;100.00
5966;BME280;3009;43.224;27.976;2023-06-26T12:32:53;99900.50;;;24.89;100.00
5966;BME280;3009;43.224;27.976;2023-06-26T12:43:04;99905.88;;;24.96;100.00
5966;BME280;3009;43.224;27.976;2023-06-26T12:45:56;99901.53;;;24.99;100.00
5966;BME280;3009;43.224;27.976;2023-06-26T12:52:04;99901.91;;;25.21;100.00
5966;BME280;3009;43.224;27.976;2023-06-26T12:58:21;99900.19;;;25.07;100.00
5966;BME280;3009;43.224;27.976;2023-06-26T13:08:25;99919.81;;;25.05;100.00
5966;BME280;3009;43.224;27.976;2023-06-26T13:18:42;99918.03;;;25.19;100.00
5966;BME280;3009;43.224;27.976;2023-06-26T13:24:33;99919.38;;;24.83;100.00
5966;BME280;3009;43.224;27.976;2023-06-26T13:27:02;99911.81;;;24.40;100.00
5966;BME280;3009;43.224;27.976;2023-06-26T13:33:42;99913.44;;;24.65;100.00
5966;BME280;3009;43.224;27.976;2023-06-26T13:39:53;99920.56;;;24.58;100.00
5966;BME280;3009;43.224;27.976;2023-06-26T13:50:16;99928.28;;;25.15;100.00
5966;BME280;3009;43.224;27.976;2023-06-26T14:00:20;99932.84;;;25.45;100.00
5966;BME280;3009;43.224;27.976;2023-06-26T14:06:29;99918.28;;;25.88;100.00
5966;BME280;3009;43.224;27.976;2023-06-26T14:20:16;99919.13;;;25.45;100.00
5966;BME280;3009;43.224;27.976;2023-06-26T14:23:09;99923.00;;;25.68;100.00
5966;BME280;3009;43.224;27.976;2023-06-26T14:29:25;99917.91;;;25.86;99.95
5966;BME280;3009;43.224;27.976;2023-06-26T15:10:57;99892.47;;;24.78;100.00
5966;BME280;3009;43.224;27.976;2023-06-26T15:17:37;99890.09;;;24.53;100.00
5966;BME280;3009;43.224;27.976;2023-06-26T15:31:32;99887.16;;;24.67;100.00
5966;BME280;3009;43.224;27.976;2023-06-26T15:37:56;99882.22;;;24.82;100.00
5966;BME280;3009;43.224;27.976;2023-06-26T15:44:05;99886.16;;;24.54;100.00
5966;BME280;3009;43.224;27.976;2023-06-26T15:58:03;99898.06;;;24.94;100.00
5966;BME280;3009;43.224;27.976;2023-06-26T16:08:34;99893.41;;;24.68;100.00
5966;BME280;3009;43.224;27.976;2023-06-26T16:33:46;99905.34;;;23.65;100.00
5966;BME280;3009;43.224;27.976;2023-06-26T16:39:56;99906.47;;;23.33;100.00
5966;BME280;3009;43.224;27.976;2023-06-26T16:46:05;99902.97;;;23.29;100.00
5966;BME280;3009;43.224;27.976;2023-06-26T17:00:16;99926.28;;;22.99;100.00
5966;BME280;3009;43.224;27.976;2023-06-26T17:06:25;99921.69;;;22.85;100.00
5966;BME280;3009;43.224;27.976;2023-06-26T17:23:57;99934.13;;;22.41;100.00
5966;BME280;3009;43.224;27.976;2023-06-26T17:41:12;99948.31;;;22.03;100.00
5966;BME280;3009;43.224;27.976;2023-06-26T17:58:13;99956.22;;;21.72;100.00
5966;BME280;3009;43.224;27.976;2023-06-26T18:04:28;99962.09;;;21.53;100.00
5966;BME280;3009;43.224;27.976;2023-06-26T18:18:20;99984.72;;;21.24;100.00
5966;BME280;3009;43.224;27.976;2023-06-26T18:28:41;99993.28;;;21.05;100.00
5966;BME280;3009;43.224;27.976;2023-06-26T18:34:51;100013.91;;;20.92;100.00
5966;BME280;3009;43.224;27.976;2023-06-26T18:41:01;100008.81;;;20.83;100.00
5966;BME280;3009;43.224;27.976;2023-06-26T20:20:59;100020.38;;;20.47;100.00
5966;BME280;3009;43.224;27.976;2023-06-26T20:34:42;100029.69;;;20.35;100.00
5966;BME280;3009;43.224;27.976;2023-06-26T20:40:54;100044.44;;;20.38;100.00
5966;BME280;3009;43.224;27.976;2023-06-26T20:47:03;100031.66;;;20.46;100.00
5966;BME280;3009;43.224;27.976;2023-06-26T20:57:37;100028.97;;;20.60;100.00
5966;BME280;3009;43.224;27.976;2023-06-26T21:18:43;100029.91;;;21.29;100.00
5966;BME280;3009;43.224;27.976;2023-06-26T21:37:38;100037.59;;;20.66;100.00
5966;BME280;3009;43.224;27.976;2023-06-26T21:43:50;100034.47;;;20.67;100.00
5966;BME280;3009;43.224;27.976;2023-06-26T21:46:19;100032.13;;;20.69;100.00
5966;BME280;3009;43.224;27.976;2023-06-26T21:56:23;100030.59;;;20.68;100.00
5966;BME280;3009;43.224;27.976;2023-06-26T21:58:54;100034.09;;;20.65;100.00
5966;BME280;3009;43.224;27.976;2023-06-26T22:01:39;100036.00;;;20.61;100.00
5966;BME280;3009;43.224;27.976;2023-06-26T22:11:37;100026.25;;;20.60;100.00
5966;BME280;3009;43.224;27.976;2023-06-26T22:17:54;100035.19;;;20.53;100.00
5966;BME280;3009;43.224;27.976;2023-06-26T22:24:10;100039.00;;;20.38;100.00
5966;BME280;3009;43.224;27.976;2023-06-26T22:54:39;100051.41;;;20.25;100.00
5966;BME280;3009;43.224;27.976;2023-06-26T23:00:48;100056.09;;;20.35;100.00
5966;BME280;3009;43.224;27.976;2023-06-26T23:06:58;100051.41;;;20.28;100.00
5966;BME280;3009;43.224;27.976;2023-06-26T23:21:00;100045.53;;;20.19;100.00
5966;BME280;3009;43.224;27.976;2023-06-26T23:27:10;100051.38;;;20.17;100.00
5966;BME280;3009;43.224;27.976;2023-06-26T23:37:53;100051.25;;;19.96;100.00
5966;BME280;3009;43.224;27.976;2023-06-26T23:44:09;100042.25;;;19.88;100.00
5966;BME280;3009;43.224;27.976;2023-06-26T23:50:25;100036.75;;;19.77;100.00
5966;BME280;3009;43.224;27.976;2023-06-26T23:56:42;100035.94;;;19.77;100.00
5966;BME280;3009;43.224;27.976;2023-06-26T23:59:48;100037.47;;;19.74;100.00
